Estación de Huelquen

Ultimos registro cada 15 minutos 82
Estación Fecha / Hora Temperatura Humedad Lluvia Velocidad Dirección Radiación Presion
82 Huelquen 05-05-2026 20:30 13,3 79 0 0 269 0 1015,1
81 Huelquen 05-05-2026 20:15 13,7 78 0 0 269 0 1014,9
80 Huelquen 05-05-2026 20:00 14 77 0 0 269 0 1014,7
79 Huelquen 05-05-2026 19:45 14,6 75 0 0 269 0 1014,4
78 Huelquen 05-05-2026 19:30 15,1 73 0 0 269 0 1014,1
77 Huelquen 05-05-2026 19:15 15,6 72 0 0 269 0 1014,2
76 Huelquen 05-05-2026 19:00 16,2 69 0 0 269 0 1014,1
75 Huelquen 05-05-2026 18:45 16,6 68 0 0 259 0 1013,9
74 Huelquen 05-05-2026 18:30 17,1 68 0 0 262 0 1013,5
73 Huelquen 05-05-2026 18:15 17,3 67 0 0 270 0 1012,9
72 Huelquen 05-05-2026 18:00 17,6 67 0 0 289 0 1012,6
71 Huelquen 05-05-2026 17:45 17,8 68 0 0 295 5 1012,4
70 Huelquen 05-05-2026 17:30 18,6 67 0 0 294 12 1012,1
69 Huelquen 05-05-2026 17:15 19,4 65 0 0 295 23 1011,7
68 Huelquen 05-05-2026 17:00 19,9 60 0 0 311 32 1011,7
67 Huelquen 05-05-2026 16:45 20,6 54 0 0 317 49 1011,8
66 Huelquen 05-05-2026 16:30 21,1 58 0 0 329 58 1011,7
65 Huelquen 05-05-2026 16:15 21,3 52 0 0 316 62 1011,6
64 Huelquen 05-05-2026 16:00 21,7 50 0 0 302 84 1011,5
63 Huelquen 05-05-2026 15:45 22,3 48 0 0 297 100 1011,5
62 Huelquen 05-05-2026 15:30 22,7 45 0 0 294 104 1011,5
61 Huelquen 05-05-2026 15:15 22,8 49 0 0 278 120 1011,5
60 Huelquen 05-05-2026 15:00 22,7 44 0 0 285 148 1011,4
59 Huelquen 05-05-2026 14:45 22,3 44 0 0 280 174 1011,4
58 Huelquen 05-05-2026 14:30 22,3 45 0 0 284 120 1011,3
57 Huelquen 05-05-2026 14:15 22,3 43 0 0 267 146 1011,2
56 Huelquen 05-05-2026 14:00 22,6 45 0 0 264 162 1011,2
55 Huelquen 05-05-2026 13:45 22,6 45 0 0 180 167 1011,2
54 Huelquen 05-05-2026 13:30 22,6 45 0 0 164 272 1011,2
53 Huelquen 05-05-2026 13:15 22,2 45 0 0 105 285 1011,4
52 Huelquen 05-05-2026 13:00 22,2 42 0 0 173 246 1011,3
51 Huelquen 05-05-2026 12:45 21,9 43 0 0 181 239 1011,5
50 Huelquen 05-05-2026 12:30 21,8 42 0 0 180 287 1011,6
49 Huelquen 05-05-2026 12:15 21,3 43 0 0 291 299 1011,8
48 Huelquen 05-05-2026 12:00 20,7 46 0 0 238 381 1011,9
47 Huelquen 05-05-2026 11:45 20,2 45 0 0,4 309 519 1012
46 Huelquen 05-05-2026 11:30 19,2 48 0 0 245 522 1012,1
45 Huelquen 05-05-2026 11:15 18,9 49 0 0 262 185 1012,5
44 Huelquen 05-05-2026 11:00 18,8 49 0 0 259 250 1012,8
43 Huelquen 05-05-2026 10:45 18,3 51 0 0 172 216 1013
42 Huelquen 05-05-2026 10:30 17,6 54 0 0 172 262 1013,3
41 Huelquen 05-05-2026 10:15 16,4 59 0 0 174 216 1013,5
40 Huelquen 05-05-2026 10:00 15,4 63 0 0 164 178 1013,6
39 Huelquen 05-05-2026 09:45 14,6 68 0 0 274 135 1013,8
38 Huelquen 05-05-2026 09:30 14,2 66 0 0 274 83 1013,8
37 Huelquen 05-05-2026 09:15 13,7 68 0 0 274 77 1013,5
36 Huelquen 05-05-2026 09:00 12,9 72 0 0 231 77 1013,5
35 Huelquen 05-05-2026 08:45 12,4 76 0 0 95 63 1013,5
34 Huelquen 05-05-2026 08:30 11,6 77 0 0 100 63 1013,8
33 Huelquen 05-05-2026 08:15 11,3 79 0 0 100 26 1014,5
32 Huelquen 05-05-2026 08:00 10,9 79 0 0 100 30 1014,8
31 Huelquen 05-05-2026 07:45 10,8 80 0 0 100 0 1015
30 Huelquen 05-05-2026 07:15 10,8 81 0 0 100 0 1015
29 Huelquen 05-05-2026 07:00 10,6 81 0 0 99 0 1015,1
28 Huelquen 05-05-2026 06:45 10,4 81 0 0 99 0 1015
27 Huelquen 05-05-2026 06:30 10,3 82 0 0 154 0 1015,1
26 Huelquen 05-05-2026 06:15 10,2 82 0 0 154 0 1014,8
25 Huelquen 05-05-2026 06:00 10,2 83 0 0 154 0 1014,8
24 Huelquen 05-05-2026 05:45 10 82 0 0 154 0 1014,5
23 Huelquen 05-05-2026 05:30 9,8 83 0 0 154 0 1013,7
22 Huelquen 05-05-2026 05:15 9,4 83 0 0 154 0 1013,6
21 Huelquen 05-05-2026 05:00 9,2 84 0 0 154 0 1013,6
20 Huelquen 05-05-2026 04:45 9,2 84 0 0 154 0 1013,6
19 Huelquen 05-05-2026 04:30 9,2 84 0 0 154 0 1013,6
18 Huelquen 05-05-2026 04:15 9,1 83 0 0 154 0 1013
17 Huelquen 05-05-2026 04:00 9 83 0 0 154 0 1013
16 Huelquen 05-05-2026 03:45 8,9 82 0 0 154 0 1013
15 Huelquen 05-05-2026 03:30 9,1 82 0 0 154 0 1012,9
14 Huelquen 05-05-2026 03:15 9,5 82 0 0 154 0 1013,1
13 Huelquen 05-05-2026 03:00 9,8 82 0 0 154 0 1013,2
12 Huelquen 05-05-2026 02:45 9,8 83 0 0 169 0 1013,4
11 Huelquen 05-05-2026 02:30 9,9 83 0 0 169 0 1013,4
10 Huelquen 05-05-2026 02:15 9,9 83 0 0 169 0 1013,7
9 Huelquen 05-05-2026 02:00 9,7 83 0 0 169 0 1013,9
8 Huelquen 05-05-2026 01:45 9,6 83 0 0 169 0 1014,1
7 Huelquen 05-05-2026 01:30 9,6 83 0 0 169 0 1014,2
6 Huelquen 05-05-2026 01:15 9,6 82 0 0 169 0 1014,3
5 Huelquen 05-05-2026 01:00 9,6 82 0 0 169 0 1014,3
4 Huelquen 05-05-2026 00:45 9,4 83 0 0 169 0 1014,6
3 Huelquen 05-05-2026 00:30 9,3 82 0 0 169 0 1014,7
2 Huelquen 05-05-2026 00:15 9,1 82 0 0 169 0 1014,7
1 Huelquen 05-05-2026 00:00 9,1 82 0 0 169 0 1014,6